createdAt,value
2019-06-20T00:01:44.815Z,3.27
2019-06-20T00:04:13.546Z,3.10
2019-06-20T00:06:42.262Z,2.80
2019-06-20T00:09:10.961Z,2.70
2019-06-20T00:11:39.686Z,2.93
2019-06-20T00:14:08.422Z,3.03
2019-06-20T00:16:37.170Z,3.40
2019-06-20T00:19:05.851Z,4.20
2019-06-20T00:21:34.613Z,3.37
2019-06-20T00:24:03.290Z,3.20
2019-06-20T00:26:32.027Z,3.00
2019-06-20T00:29:00.725Z,3.27
2019-06-20T00:31:29.435Z,3.20
2019-06-20T00:33:58.167Z,3.30
2019-06-20T00:36:26.861Z,3.20
2019-06-20T00:38:55.626Z,3.00
2019-06-20T00:41:24.365Z,3.00
2019-06-20T00:43:53.093Z,2.90
2019-06-20T00:46:21.839Z,2.90
2019-06-20T00:48:50.600Z,2.90
2019-06-20T00:51:19.308Z,2.70
2019-06-20T00:53:48.060Z,3.10
2019-06-20T00:56:16.752Z,2.90
2019-06-20T00:58:45.529Z,2.57
2019-06-20T01:01:14.333Z,2.73
2019-06-20T01:03:43.079Z,2.60
2019-06-20T01:06:11.783Z,3.00
2019-06-20T01:08:40.491Z,2.67
2019-06-20T01:11:09.228Z,3.03
2019-06-20T01:13:37.942Z,2.80
2019-06-20T01:16:06.679Z,2.90
2019-06-20T01:18:35.502Z,3.00
2019-06-20T01:21:04.636Z,2.80
2019-06-20T01:23:33.309Z,2.67
2019-06-20T01:26:02.112Z,2.73
2019-06-20T01:28:30.814Z,2.70
2019-06-20T01:30:59.545Z,2.60
2019-06-20T01:33:28.277Z,2.73
2019-06-20T01:35:57.012Z,2.80
2019-06-20T01:38:25.742Z,2.70
2019-06-20T01:40:54.443Z,2.93
2019-06-20T01:43:23.167Z,2.70
2019-06-20T01:45:51.864Z,3.33
2019-06-20T01:48:20.570Z,2.73
2019-06-20T01:50:49.317Z,2.30
2019-06-20T01:53:18.010Z,2.80
2019-06-20T01:55:46.755Z,2.80
2019-06-20T01:58:15.463Z,3.23
2019-06-20T02:00:45.938Z,2.80
2019-06-20T02:03:15.364Z,2.90
2019-06-20T02:05:44.280Z,3.00
2019-06-20T02:08:13.072Z,2.90
2019-06-20T02:10:41.755Z,2.80
2019-06-20T02:13:10.518Z,2.53
2019-06-20T02:15:39.219Z,3.00
2019-06-20T02:18:08.045Z,2.50
2019-06-20T02:20:37.888Z,2.90
2019-06-20T02:23:07.190Z,2.77
2019-06-20T02:25:35.913Z,2.70
2019-06-20T02:28:05.116Z,2.47
2019-06-20T02:30:33.851Z,2.60
2019-06-20T02:33:02.637Z,2.60
2019-06-20T02:35:31.391Z,2.70
2019-06-20T02:38:00.100Z,2.63
2019-06-20T02:40:28.979Z,2.80
2019-06-20T02:42:57.671Z,2.57
2019-06-20T02:45:26.396Z,2.93
2019-06-20T02:47:55.121Z,2.73
2019-06-20T02:50:23.815Z,2.87
2019-06-20T02:52:52.529Z,2.73
2019-06-20T02:55:21.261Z,2.90
2019-06-20T02:57:50.041Z,3.00
2019-06-20T03:00:23.319Z,2.93
2019-06-20T03:02:52.014Z,2.60
2019-06-20T03:05:20.718Z,2.90
2019-06-20T03:07:49.459Z,2.60
2019-06-20T03:10:18.165Z,2.70
2019-06-20T03:12:46.870Z,2.70
2019-06-20T03:15:15.572Z,2.83
2019-06-20T03:17:44.311Z,3.00
2019-06-20T03:20:13.107Z,2.70
2019-06-20T03:22:41.818Z,2.40
2019-06-20T03:25:11.995Z,2.77
2019-06-20T03:27:40.782Z,2.67
2019-06-20T03:30:09.991Z,2.50
2019-06-20T03:32:38.723Z,2.67
2019-06-20T03:35:07.527Z,2.53
2019-06-20T03:37:36.247Z,2.33
2019-06-20T03:40:04.985Z,2.10
2019-06-20T03:42:33.670Z,2.33
2019-06-20T03:45:02.793Z,2.27
2019-06-20T03:47:31.692Z,2.17
2019-06-20T03:50:00.404Z,2.47
2019-06-20T03:52:29.151Z,2.13
2019-06-20T03:54:57.883Z,2.20
2019-06-20T03:57:26.615Z,2.23
2019-06-20T03:59:55.384Z,2.47
2019-06-20T04:02:24.092Z,2.50
2019-06-20T04:04:52.873Z,2.37
2019-06-20T04:07:21.597Z,2.50
2019-06-20T04:09:50.332Z,2.50
2019-06-20T04:12:19.033Z,2.40
2019-06-20T04:14:49.079Z,2.50
2019-06-20T04:17:18.046Z,2.10
2019-06-20T04:19:46.851Z,2.40
2019-06-20T04:22:15.661Z,2.20
2019-06-20T04:24:44.334Z,2.30
2019-06-20T04:27:13.051Z,2.37
2019-06-20T04:29:41.758Z,2.40
2019-06-20T04:32:10.506Z,2.43
2019-06-20T04:34:39.211Z,2.20
2019-06-20T04:37:07.938Z,2.00
2019-06-20T04:39:36.610Z,2.20
2019-06-20T04:42:05.356Z,2.40
2019-06-20T04:44:34.091Z,2.27
2019-06-20T04:47:09.383Z,2.30
2019-06-20T04:49:38.083Z,2.40
2019-06-20T04:52:06.864Z,2.40
2019-06-20T04:54:35.620Z,2.20
2019-06-20T04:57:04.383Z,2.37
2019-06-20T04:59:33.157Z,2.77
2019-06-20T05:02:01.880Z,2.60
2019-06-20T05:04:30.606Z,2.60
2019-06-20T05:07:03.799Z,2.43
2019-06-20T05:09:32.568Z,2.93
2019-06-20T05:12:01.354Z,2.37
2019-06-20T05:14:30.126Z,2.60
2019-06-20T05:16:58.888Z,2.57
2019-06-20T05:19:27.599Z,2.27
2019-06-20T05:21:56.325Z,2.60
2019-06-20T05:24:25.706Z,2.50
2019-06-20T05:26:54.551Z,2.50
2019-06-20T05:29:23.281Z,2.50
2019-06-20T05:31:52.022Z,2.30
2019-06-20T05:34:20.721Z,2.80
2019-06-20T05:36:49.472Z,2.90
2019-06-20T05:39:18.193Z,2.90
2019-06-20T05:41:46.881Z,3.00
2019-06-20T05:44:15.593Z,2.90
2019-06-20T05:46:44.287Z,3.00
2019-06-20T05:49:13.008Z,3.13
2019-06-20T05:51:41.799Z,3.07
2019-06-20T05:54:10.543Z,2.60
2019-06-20T05:56:39.291Z,2.53
2019-06-20T05:59:08.237Z,2.80
2019-06-20T06:01:37.087Z,2.50
2019-06-20T06:04:05.841Z,2.90
2019-06-20T06:06:34.555Z,2.70
2019-06-20T06:09:03.570Z,2.73
2019-06-20T06:11:32.295Z,2.50
2019-06-20T06:14:01.029Z,2.60
2019-06-20T06:16:29.723Z,2.53
2019-06-20T06:18:58.441Z,2.17
2019-06-20T06:21:27.157Z,2.57
2019-06-20T06:23:55.930Z,2.53
2019-06-20T06:26:24.651Z,2.50
2019-06-20T06:28:53.368Z,2.60
2019-06-20T06:31:22.142Z,2.80
2019-06-20T06:33:50.844Z,2.23
2019-06-20T06:36:19.594Z,2.10
2019-06-20T06:38:48.338Z,2.50
2019-06-20T06:41:17.077Z,2.30
2019-06-20T06:43:48.700Z,2.20
2019-06-20T06:46:17.438Z,2.27
2019-06-20T06:48:46.183Z,2.40
2019-06-20T06:51:14.901Z,2.30
2019-06-20T06:53:43.678Z,2.23
2019-06-20T06:56:12.401Z,2.37
2019-06-20T06:58:41.115Z,2.20
2019-06-20T07:01:10.373Z,2.23
2019-06-20T07:03:39.363Z,2.20
2019-06-20T07:06:08.096Z,2.20
2019-06-20T07:08:36.809Z,2.00
2019-06-20T07:11:05.542Z,2.13
2019-06-20T07:13:34.285Z,2.53
2019-06-20T07:16:02.994Z,2.30
2019-06-20T07:18:31.791Z,2.50
2019-06-20T07:21:00.540Z,2.50
2019-06-20T07:23:29.370Z,2.37
2019-06-20T07:25:58.181Z,2.60
2019-06-20T07:28:26.979Z,2.87
2019-06-20T07:30:55.695Z,2.37
2019-06-20T07:33:24.431Z,2.70
2019-06-20T07:35:53.258Z,2.70
2019-06-20T07:38:22.058Z,3.50
2019-06-20T07:40:50.866Z,3.00
2019-06-20T07:43:19.587Z,3.47
2019-06-20T07:46:01.936Z,2.53
2019-06-20T07:48:18.854Z,2.53
2019-06-20T07:50:47.636Z,2.80
2019-06-20T07:53:16.380Z,2.27
2019-06-20T07:55:45.120Z,2.60
2019-06-20T07:58:13.851Z,2.53
2019-06-20T08:00:42.598Z,2.50
2019-06-20T08:03:11.326Z,3.17
2019-06-20T08:05:40.043Z,2.50
2019-06-20T08:08:08.798Z,2.40
2019-06-20T08:10:37.543Z,3.07
2019-06-20T08:13:06.258Z,3.70
2019-06-20T08:15:35.023Z,2.27
2019-06-20T08:18:03.832Z,3.27
2019-06-20T08:20:32.687Z,2.53
2019-06-20T08:23:01.426Z,2.63
2019-06-20T08:25:30.229Z,3.55
2019-06-20T08:28:00.703Z,2.53
2019-06-20T08:30:30.227Z,2.63
2019-06-20T08:33:01.301Z,2.60
2019-06-20T08:35:31.422Z,2.50
2019-06-20T08:38:01.323Z,2.50
2019-06-20T08:40:32.121Z,2.70
2019-06-20T08:43:02.129Z,2.40
2019-06-20T08:45:32.562Z,2.90
2019-06-20T08:48:02.558Z,3.13
2019-06-20T08:50:31.686Z,1.97
2019-06-20T08:53:01.700Z,3.03
2019-06-20T08:55:30.907Z,2.50
2019-06-20T08:58:01.448Z,6.07
2019-06-20T09:00:30.940Z,3.30
2019-06-20T09:03:00.465Z,2.60
2019-06-20T09:05:30.755Z,2.27
2019-06-20T09:10:33.674Z,2.30
2019-06-20T09:13:03.708Z,2.23
2019-06-20T09:15:32.695Z,2.40
2019-06-20T09:18:02.744Z,2.43
2019-06-20T09:20:31.735Z,2.00
2019-06-20T09:23:01.096Z,3.60
2019-06-20T09:25:29.987Z,2.20
2019-06-20T09:27:58.834Z,1.80
2019-06-20T09:30:27.904Z,2.20
2019-06-20T09:32:57.735Z,2.03
2019-06-20T09:35:26.883Z,2.30
2019-06-20T09:37:57.041Z,2.20
2019-06-20T09:40:26.324Z,1.90
2019-06-20T09:42:56.539Z,2.40
2019-06-20T09:45:25.818Z,2.97
2019-06-20T09:47:58.292Z,2.10
2019-06-20T09:50:27.410Z,1.83
2019-06-20T09:52:56.646Z,1.97
2019-06-20T09:55:25.803Z,1.80
2019-06-20T09:57:55.886Z,2.00
2019-06-20T10:00:25.212Z,1.90
2019-06-20T10:02:55.890Z,1.60
2019-06-20T10:05:24.889Z,1.80
2019-06-20T10:07:56.706Z,2.00
2019-06-20T10:10:28.322Z,1.70
2019-06-20T10:12:57.401Z,1.70
2019-06-20T10:15:27.092Z,1.80
2019-06-20T10:17:55.943Z,1.50
2019-06-20T10:20:24.864Z,1.90
2019-06-20T10:22:53.816Z,2.00
2019-06-20T10:25:23.080Z,2.00
2019-06-20T10:27:57.901Z,1.77
2019-06-20T10:30:27.212Z,1.70
2019-06-20T10:32:57.721Z,2.00
2019-06-20T10:35:26.989Z,1.73
2019-06-20T10:37:57.138Z,1.87
2019-06-20T10:40:27.969Z,2.00
2019-06-20T10:42:57.132Z,1.90
2019-06-20T10:45:27.492Z,2.00
2019-06-20T10:47:56.357Z,2.00
2019-06-20T10:50:25.325Z,2.10
2019-06-20T10:52:54.182Z,1.70
2019-06-20T10:55:24.940Z,1.80
2019-06-20T10:57:57.498Z,1.80
2019-06-20T11:00:31.419Z,1.87
2019-06-20T11:02:57.226Z,1.90
2019-06-20T11:05:25.976Z,4.87
2019-06-20T11:07:54.750Z,2.10
2019-06-20T11:10:23.959Z,1.73
2019-06-20T11:12:56.226Z,1.67
2019-06-20T11:15:27.823Z,1.97
2019-06-20T11:17:57.146Z,2.60
2019-06-20T11:20:26.356Z,2.20
2019-06-20T11:22:55.325Z,1.90
2019-06-20T11:25:26.544Z,2.50
2019-06-20T11:27:55.294Z,1.90
2019-06-20T11:30:24.481Z,1.90
2019-06-20T11:32:53.367Z,2.03
2019-06-20T11:35:22.234Z,2.00
2019-06-20T11:37:51.101Z,2.07
2019-06-20T11:40:20.102Z,2.20
2019-06-20T11:42:49.132Z,2.07
2019-06-20T11:45:20.200Z,2.73
2019-06-20T11:47:51.140Z,1.80
2019-06-20T11:50:20.050Z,2.00
2019-06-20T11:52:48.832Z,1.80
2019-06-20T11:55:18.008Z,1.57
2019-06-20T11:57:46.949Z,1.73
2019-06-20T12:00:16.188Z,1.83
2019-06-20T12:02:48.379Z,1.80
2019-06-20T12:05:19.982Z,2.00
2019-06-20T12:07:50.074Z,1.90
2019-06-20T12:10:19.192Z,2.20
2019-06-20T12:12:49.196Z,2.30
2019-06-20T12:15:18.600Z,2.30
2019-06-20T12:17:49.125Z,2.20
2019-06-20T12:20:18.384Z,1.90
2019-06-20T12:22:47.244Z,2.00
2019-06-20T12:25:19.199Z,2.00
2019-06-20T12:27:48.329Z,1.80
2019-06-20T12:30:19.292Z,2.00
2019-06-20T12:32:49.445Z,1.90
2019-06-20T12:35:18.553Z,1.70
2019-06-20T12:37:47.867Z,2.00
2019-06-20T12:40:16.871Z,1.90
2019-06-20T12:42:46.799Z,2.00
2019-06-20T12:45:15.894Z,1.83
2019-06-20T12:47:45.932Z,1.80
2019-06-20T12:50:15.293Z,1.73
2019-06-20T12:52:45.452Z,1.80
2019-06-20T12:55:14.740Z,1.90
2019-06-20T12:57:44.211Z,2.30
2019-06-20T13:00:13.798Z,2.13
2019-06-20T13:02:43.718Z,2.03
2019-06-20T13:05:13.271Z,2.30
2019-06-20T13:07:42.380Z,2.50
2019-06-20T13:10:11.560Z,2.20
2019-06-20T13:12:41.395Z,2.20
2019-06-20T13:15:11.025Z,2.30
2019-06-20T13:17:41.304Z,1.80
2019-06-20T13:20:10.839Z,1.30
2019-06-20T13:22:41.343Z,1.80
2019-06-20T13:25:10.131Z,1.90
2019-06-20T13:27:39.628Z,2.50
2019-06-20T13:30:09.674Z,2.50
2019-06-20T13:32:40.174Z,2.60
2019-06-20T13:35:09.828Z,2.73
2019-06-20T13:37:40.186Z,3.03
2019-06-20T13:40:09.736Z,3.10
2019-06-20T13:42:39.057Z,3.37
2019-06-20T13:45:13.513Z,3.43
2019-06-20T13:47:43.079Z,3.80
2019-06-20T13:50:11.983Z,4.00
2019-06-20T13:52:43.503Z,4.40
2019-06-20T13:55:11.142Z,4.87
2019-06-20T13:57:41.222Z,5.30
2019-06-20T14:00:11.458Z,5.57
2019-06-20T14:02:41.383Z,5.90
2019-06-20T14:05:11.577Z,6.73
2019-06-20T14:07:43.772Z,7.20
2019-06-20T14:10:10.758Z,7.40
2019-06-20T14:12:40.052Z,7.67
2019-06-20T14:15:10.279Z,7.70
2019-06-20T14:17:41.415Z,7.50
2019-06-20T14:20:09.617Z,7.63
2019-06-20T14:22:38.352Z,8.03
2019-06-20T14:25:07.212Z,8.23
2019-06-20T14:27:35.983Z,7.83
2019-06-20T14:30:05.417Z,7.70
2019-06-20T14:32:34.210Z,7.30
2019-06-20T14:35:03.021Z,8.20
2019-06-20T14:37:32.135Z,8.17
2019-06-20T14:40:00.938Z,8.83
2019-06-20T14:42:29.747Z,8.57
2019-06-20T14:44:58.581Z,9.13
2019-06-20T14:47:27.354Z,8.67
2019-06-20T14:49:56.226Z,9.07
2019-06-20T14:52:25.021Z,8.43
2019-06-20T14:54:54.001Z,8.17
2019-06-20T14:57:22.902Z,7.07
2019-06-20T14:59:52.664Z,7.17
2019-06-20T15:02:37.479Z,6.70
2019-06-20T15:04:55.483Z,6.27
2019-06-20T15:07:27.023Z,6.33
2019-06-20T15:09:55.817Z,6.73
2019-06-20T15:12:24.628Z,6.63
2019-06-20T15:14:53.492Z,5.90
2019-06-20T15:17:22.316Z,6.47
2019-06-20T15:19:51.430Z,6.23
2019-06-20T15:22:20.317Z,6.90
2019-06-20T15:24:51.818Z,6.83
2019-06-20T15:27:19.631Z,6.80
2019-06-20T15:29:48.983Z,5.80
2019-06-20T15:32:18.851Z,6.40
2019-06-20T15:34:49.274Z,6.83
2019-06-20T15:37:18.278Z,6.93
2019-06-20T15:39:48.522Z,6.80
2019-06-20T15:42:17.902Z,5.50
2019-06-20T15:44:48.966Z,6.77
2019-06-20T15:47:18.063Z,6.67
2019-06-20T15:49:46.778Z,6.60
2019-06-20T15:52:15.535Z,6.97
2019-06-20T15:54:44.429Z,5.70
2019-06-20T15:57:13.227Z,5.67
2019-06-20T15:59:42.259Z,5.03
2019-06-20T16:02:11.193Z,4.63
2019-06-20T16:04:39.992Z,4.90
2019-06-20T16:07:08.764Z,5.20
2019-06-20T16:09:38.023Z,5.60
2019-06-20T16:12:06.770Z,5.00
2019-06-20T16:14:35.680Z,5.07
2019-06-20T16:17:04.457Z,5.27
2019-06-20T16:19:33.210Z,3.93
2019-06-20T16:22:01.987Z,3.90
2019-06-20T16:24:30.752Z,3.70
2019-06-20T16:26:59.497Z,4.00
2019-06-20T16:29:28.294Z,4.80
2019-06-20T16:31:57.039Z,3.90
2019-06-20T16:34:25.789Z,4.10
2019-06-20T16:37:06.588Z,4.23
2019-06-20T16:39:25.035Z,4.67
2019-06-20T16:41:55.108Z,4.50
2019-06-20T16:44:23.826Z,4.60
2019-06-20T16:46:52.621Z,5.37
2019-06-20T16:49:21.403Z,4.60
2019-06-20T16:51:50.143Z,5.20
2019-06-20T16:54:18.887Z,4.73
2019-06-20T16:56:47.631Z,4.20
2019-06-20T16:59:16.367Z,4.70
2019-06-20T17:01:45.169Z,4.13
2019-06-20T17:04:14.150Z,4.30
2019-06-20T17:06:42.971Z,4.17
2019-06-20T17:09:11.801Z,4.10
2019-06-20T17:11:40.552Z,4.30
2019-06-20T17:14:09.371Z,4.47
2019-06-20T17:16:38.093Z,4.03
2019-06-20T17:19:06.854Z,3.87
2019-06-20T17:21:35.607Z,3.80
2019-06-20T17:24:04.461Z,3.47
2019-06-20T17:26:33.256Z,3.80
2019-06-20T17:29:02.051Z,4.30
2019-06-20T17:31:30.788Z,3.60
2019-06-20T17:33:59.547Z,3.43
2019-06-20T17:36:28.347Z,4.07
2019-06-20T17:38:57.201Z,3.70
2019-06-20T17:41:25.979Z,4.10
2019-06-20T17:43:54.749Z,3.43
2019-06-20T17:46:23.517Z,4.03
2019-06-20T17:48:52.233Z,3.60
2019-06-20T17:51:21.008Z,3.97
2019-06-20T17:53:49.820Z,4.10
2019-06-20T17:56:18.615Z,3.70
2019-06-20T17:58:47.440Z,6.43
2019-06-20T18:01:16.263Z,4.27
2019-06-20T18:03:45.054Z,3.60
2019-06-20T18:06:13.867Z,3.87
2019-06-20T18:08:42.709Z,3.93
2019-06-20T18:11:11.465Z,3.83
2019-06-20T18:13:40.463Z,3.83
2019-06-20T18:16:24.122Z,3.70
2019-06-20T18:18:39.809Z,3.70
2019-06-20T18:21:08.563Z,4.07
2019-06-20T18:23:37.283Z,3.30
2019-06-20T18:26:06.040Z,4.13
2019-06-20T18:28:34.870Z,3.67
2019-06-20T18:31:03.666Z,3.97
2019-06-20T18:33:32.379Z,3.70
2019-06-20T18:36:01.221Z,3.50
2019-06-20T18:38:30.018Z,3.40
2019-06-20T18:40:58.841Z,3.57
2019-06-20T18:43:27.704Z,3.60
2019-06-20T18:45:56.509Z,3.40
2019-06-20T18:48:25.318Z,3.50
2019-06-20T18:50:54.079Z,3.23
2019-06-20T18:53:22.876Z,3.03
2019-06-20T18:55:51.660Z,3.43
2019-06-20T18:58:20.460Z,2.93
2019-06-20T19:00:49.290Z,2.93
2019-06-20T19:03:21.240Z,3.23
2019-06-20T19:05:48.690Z,3.33
2019-06-20T19:08:17.552Z,3.17
2019-06-20T19:10:46.405Z,3.23
2019-06-20T19:13:15.170Z,3.30
2019-06-20T19:15:44.110Z,3.20
2019-06-20T19:18:13.038Z,2.90
2019-06-20T19:20:41.761Z,2.90
2019-06-20T19:23:10.638Z,3.43
2019-06-20T19:25:39.416Z,3.40
2019-06-20T19:28:08.235Z,2.90
2019-06-20T19:30:55.135Z,2.90
2019-06-20T19:33:23.894Z,3.20
2019-06-20T19:35:52.656Z,3.13
2019-06-20T19:38:21.444Z,3.00
2019-06-20T19:40:50.518Z,3.53
2019-06-20T19:43:19.303Z,3.10
2019-06-20T19:45:48.218Z,3.30
2019-06-20T19:48:17.135Z,3.37
2019-06-20T19:50:45.917Z,3.80
2019-06-20T19:53:14.700Z,3.60
2019-06-20T19:55:43.607Z,3.80
2019-06-20T19:58:12.434Z,3.77
2019-06-20T20:00:41.247Z,3.87
2019-06-20T20:03:10.121Z,3.83
2019-06-20T20:05:38.891Z,4.53
2019-06-20T20:08:07.752Z,3.70
2019-06-20T20:10:44.012Z,4.03
2019-06-20T20:13:15.323Z,3.70
2019-06-20T20:15:43.632Z,3.97
2019-06-20T20:18:12.493Z,3.90
2019-06-20T20:20:41.335Z,4.10
2019-06-20T20:23:10.118Z,4.10
2019-06-20T20:25:38.977Z,4.10
2019-06-20T20:28:07.760Z,4.33
2019-06-20T20:30:36.542Z,4.60
2019-06-20T20:33:05.302Z,4.40
2019-06-20T20:35:35.777Z,4.10
2019-06-20T20:38:04.620Z,5.00
2019-06-20T20:40:33.413Z,4.90
2019-06-20T20:43:02.184Z,4.40
2019-06-20T20:45:30.987Z,4.27
2019-06-20T20:47:59.743Z,3.97
2019-06-20T20:50:28.518Z,5.47
2019-06-20T20:52:57.329Z,4.47
2019-06-20T20:55:26.059Z,4.33
2019-06-20T20:57:54.871Z,5.47
2019-06-20T21:00:25.023Z,4.97
2019-06-20T21:02:53.942Z,5.80
2019-06-20T21:05:22.682Z,5.23
2019-06-20T21:07:51.480Z,5.60
2019-06-20T21:10:20.566Z,5.70
2019-06-20T21:12:49.382Z,6.10
2019-06-20T21:15:18.473Z,5.93
2019-06-20T21:17:47.304Z,5.30
2019-06-20T21:20:16.636Z,5.90
2019-06-20T21:22:45.420Z,5.07
2019-06-20T21:25:14.156Z,5.50
2019-06-20T21:27:42.922Z,5.60
2019-06-20T21:30:13.738Z,5.67
2019-06-20T21:32:42.460Z,5.80
2019-06-20T21:35:11.433Z,5.73
2019-06-20T21:37:40.252Z,5.50
2019-06-20T21:40:09.348Z,5.93
2019-06-20T21:42:38.138Z,6.33
2019-06-20T21:45:07.350Z,6.30
2019-06-20T21:47:36.118Z,6.00
2019-06-20T21:50:05.180Z,5.80
2019-06-20T21:52:33.972Z,6.43
2019-06-20T21:55:02.808Z,6.53
2019-06-20T21:57:31.641Z,5.73
2019-06-20T22:00:00.413Z,6.27
2019-06-20T22:02:29.162Z,5.90
2019-06-20T22:04:57.945Z,6.63
2019-06-20T22:07:26.655Z,6.20
2019-06-20T22:09:55.523Z,6.73
2019-06-20T22:12:24.339Z,7.00
2019-06-20T22:14:53.122Z,7.00
2019-06-20T22:17:21.903Z,6.53
2019-06-20T22:19:50.653Z,6.10
2019-06-20T22:22:19.386Z,6.50
2019-06-20T22:24:48.180Z,6.23
2019-06-20T22:27:16.982Z,6.50
2019-06-20T22:29:45.775Z,6.33
2019-06-20T22:32:14.545Z,5.73
2019-06-20T22:34:43.292Z,6.40
2019-06-20T22:37:12.090Z,6.10
2019-06-20T22:39:40.805Z,6.50
2019-06-20T22:42:09.607Z,6.20
2019-06-20T22:44:38.376Z,6.83
2019-06-20T22:47:07.206Z,6.83
2019-06-20T22:49:35.935Z,6.43
2019-06-20T22:52:04.671Z,6.57
2019-06-20T22:54:33.410Z,6.57
2019-06-20T22:57:02.136Z,6.83
2019-06-20T22:59:30.901Z,6.83
2019-06-20T23:01:59.639Z,6.17
2019-06-20T23:04:28.364Z,5.97
2019-06-20T23:06:57.292Z,6.47
2019-06-20T23:09:27.425Z,6.40
2019-06-20T23:11:56.413Z,6.97
2019-06-20T23:14:25.150Z,7.10
2019-06-20T23:16:53.942Z,7.33
2019-06-20T23:19:22.681Z,6.50
2019-06-20T23:21:51.413Z,7.00
2019-06-20T23:24:20.252Z,6.53
2019-06-20T23:26:48.991Z,6.87
2019-06-20T23:29:24.025Z,7.30
2019-06-20T23:31:53.298Z,6.93
2019-06-20T23:34:22.022Z,7.47
2019-06-20T23:36:50.765Z,6.93
2019-06-20T23:39:19.527Z,7.80
2019-06-20T23:41:48.259Z,8.33
2019-06-20T23:44:17.049Z,7.37
2019-06-20T23:46:45.881Z,8.67
2019-06-20T23:49:14.650Z,8.00
2019-06-20T23:51:48.698Z,7.93
2019-06-20T23:54:17.429Z,8.07
2019-06-20T23:56:46.161Z,8.50
2019-06-20T23:59:34.043Z,7.03
